Spickard, Missouri
Current Conditions -  °F | °C
As of 11:10 PM on Friday 24 Oct 2014 (Local Time) from KLWD Reporting Station
Moderate Fog Moderate Fog  
Wind Chill: 59°   Ceiling: 300
Heat Index: 59°   Visibility: 0.25mi
Dew Point: 59°   Wind: 5mph
Humidity: 100%   Direction: 350°N
Pressure: 29.98"   Gusts: NA
Location:  40.24°N, 93.59°W
Report Text: KLWD 250410Z AUTO 35004KT 1/4SM FG VV003 15/15 A2998 RMK AO2 T01500150
Loading
Personal Weather Stations






























Interactive Weather Map
Tropical Storm Tracking
New forecast layout! Learn more

10-Day Weather Forecast

Advertisements
Track Severe Weather on mobile